Pagrindinis puslapis
METAR-TAF:

METAR-TAF

Oro uostai :

Liuleo, Švedija

platuma: 65-33N, ilguma: 022-08E, Aukštis: 17 m

Dabartinis oras

Ataskaita buvo paskelbta 28 minutes, ne 09:50 UTC
Vėjas 10 kt iš Šiaurės/Šiaurės Vakarų
Temperatūra -5°C
Drėgmė 93%
Slėgis 976 hPa
Matomumas: 7000 m
Išsisklaidę debesys ne aukštis 1000 ft
Su prošvaistėmis ne aukštis 1500 ft
sniegas

METAR: ESPA 090950Z 34010KT 7000 -SN SCT010 BKN015 M05/M06 Q0976

Laikas: 11:18 (10:18 UTC)

Prognozė

Ataskaita buvo paskelbta 56 minutes, ne 09:22 UTC
Prognozė galioja nuo 09 metu 09 UTC su 09 metu 18 UTC
Vėjas 10 kt iš Šiaurės
Matomumas: 8000 m
Su prošvaistėmis ne aukštis 1000 ft
sniegas
Laikinai
nuo 09 metu 09 UTC su 09 metu 13 UTC
Matomumas: 2000 m
ne aukštis 1500 ft
sniegas
Tapsmas
nuo 09 metu 11 UTC su 09 metu 13 UTC
Matomumas 10 km arba daugiau
Išsisklaidę debesys ne aukštis 1500 ft

TAF: ESPA 090922Z 0909/0918 36010KT 8000 -SN BKN010 TEMPO 0909/0913 2000 -SN VV015 BECMG 0911/0913 9999 NSW SCT015 RMK MIL

Orai ataskaitas ir orų prognozės (METAR, TAF).

turimą stotys yra geltonos ir raudonos taškus žemėlapyje.

Perkelti pele per norėdami pamatyti stoties vardą.

Tada spustelėkite, norėdami matyti oro stebėjimo ir prognozės.

Norėdami pakeisti žemėlapį: spustelėkite ant žalios mygtukų su juodo kryžiaus žemyn,; žalią mygtuką su brūkšneliu, jei norite nutolinti; arba žalių rodyklių gretimoms žemėlapius.


METAR-TAF: